Time;durP1;ratioP1;P1;durP2;ratioP2;P2;SDS_P1;SDS_P2;PMS_P1;PMS_P2;Temp;Humidity;BMP_temperature;BMP_pressure;BME280_temperature;BME280_humidity;BME280_pressure;Samples;Min_cycle;Max_cycle;Signal;HPM_P1;HPM_P2
2022/05/25 04:33:30;;;;;;;;;2.00;2.00;;;;;14.06;64.14;101249.84;5037012;28;45583;-59
2022/05/25 04:35:57;;;;;;;;;1.00;1.00;;;;;14.00;64.19;101251.03;5038017;28;45337;-59
2022/05/25 04:38:24;;;;;;;;;1.50;1.00;;;;;14.02;64.13;101253.66;5038533;28;45573;-59
2022/05/25 04:40:49;;;;;;;;;1.00;1.00;;;;;14.01;64.54;101252.78;5038050;28;46324;-59
2022/05/25 04:43:17;;;;;;;;;2.00;2.00;;;;;14.09;63.88;101265.00;5038892;28;45317;-59
2022/05/25 04:45:45;;;;;;;;;1.00;1.00;;;;;14.08;64.26;101271.34;5038649;28;45230;-59
2022/05/25 04:48:13;;;;;;;;;1.00;1.00;;;;;14.06;64.43;101273.22;5038140;28;45444;-59
2022/05/25 04:50:40;;;;;;;;;2.00;2.00;;;;;14.04;64.69;101278.69;5038287;28;46258;-59
2022/05/25 04:53:11;;;;;;;;;2.00;2.00;;;;;14.06;64.69;101274.09;5038698;28;45523;-59
2022/05/25 04:58:24;;;;;;;;;2.50;2.50;;;;;14.09;64.36;101283.88;5038274;28;45257;-58
2022/05/25 05:00:50;;;;;;;;;2.00;2.00;;;;;14.05;64.74;101275.06;5038508;28;46321;-59
2022/05/25 05:03:16;;;;;;;;;5.50;2.25;;;;;14.11;64.28;101290.94;5038249;28;45372;-64
2022/05/25 05:05:42;;;;;;;;;2.00;2.00;;;;;14.08;64.43;101285.69;5038346;28;45349;-60
2022/05/25 05:08:08;;;;;;;;;2.25;2.25;;;;;14.07;64.09;101285.75;5038160;28;45325;-59
2022/05/25 05:10:34;;;;;;;;;3.00;3.00;;;;;14.09;64.39;101286.56;5038473;28;45332;-59
2022/05/25 05:13:04;;;;;;;;;2.00;2.00;;;;;14.18;64.48;101294.19;5038398;28;45278;-60
2022/05/25 05:15:33;;;;;;;;;5.50;3.75;;;;;14.19;64.10;101302.19;5037700;28;45462;-59
2022/05/25 05:17:58;;;;;;;;;4.25;3.00;;;;;14.22;63.83;101309.22;5038980;28;45255;-59
2022/05/25 05:20:24;;;;;;;;;5.00;4.00;;;;;14.22;63.86;101301.13;5041488;28;45340;-58
2022/05/25 05:22:49;;;;;;;;;2.25;2.25;;;;;14.25;63.61;101309.97;5041852;28;45337;-58
2022/05/25 05:25:15;;;;;;;;;6.25;5.00;;;;;14.27;63.90;101318.84;5033822;28;45343;-58
2022/05/25 05:27:40;;;;;;;;;4.00;4.00;;;;;14.31;63.85;101317.72;5021477;28;45526;-59
2022/05/25 05:30:10;;;;;;;;;4.00;4.00;;;;;14.35;63.40;101316.63;5021958;28;45626;-60
2022/05/25 05:32:35;;;;;;;;;6.75;4.00;;;;;14.36;63.14;101312.09;5021098;28;46326;-50
2022/05/25 05:35:02;;;;;;;;;4.25;4.25;;;;;14.34;63.14;101308.59;5021769;28;45364;-48
2022/05/25 05:37:36;;;;;;;;;5.75;5.75;;;;;14.43;63.41;101310.84;5021538;28;45310;-53
2022/05/25 05:40:06;;;;;;;;;5.00;4.00;;;;;14.46;62.72;101307.13;5021691;28;46251;-50
2022/05/25 05:42:33;;;;;;;;;5.00;3.50;;;;;14.50;62.61;101298.78;5021292;28;45274;-51
2022/05/25 05:45:04;;;;;;;;;5.00;5.00;;;;;14.53;62.01;101305.84;5021374;28;45459;-53
2022/05/25 05:47:39;;;;;;;;;4.25;3.00;;;;;14.56;61.80;101294.88;5021287;28;45564;-49
2022/05/25 05:50:06;;;;;;;;;3.00;3.00;;;;;14.63;61.50;101297.16;5021462;28;45384;-52
2022/05/25 05:52:34;;;;;;;;;2.25;2.25;;;;;14.66;61.07;101286.19;5021079;28;45768;-53
2022/05/25 05:55:00;;;;;;;;;3.00;3.00;;;;;14.69;61.32;101291.44;5036462;28;45356;-50
2022/05/25 05:57:27;;;;;;;;;4.00;2.50;;;;;14.75;61.33;101290.22;5040183;28;45554;-52
2022/05/25 05:59:52;;;;;;;;;2.00;2.00;;;;;14.78;60.94;101298.16;5040662;28;46765;-50
2022/05/25 06:02:18;;;;;;;;;3.00;3.00;;;;;14.81;60.88;101302.50;5041147;28;45309;-48
2022/05/25 06:04:43;;;;;;;;;4.25;3.25;;;;;14.80;61.20;101298.09;5040897;28;45273;-51
2022/05/25 06:07:08;;;;;;;;;2.00;2.00;;;;;14.84;60.59;101303.22;5040527;28;45486;-52
2022/05/25 06:09:34;;;;;;;;;3.00;3.00;;;;;14.90;60.77;101312.81;5041040;28;46286;-52
2022/05/25 06:11:59;;;;;;;;;1.75;1.00;;;;;14.90;60.80;101305.59;5041008;28;45225;-51
2022/05/25 06:14:25;;;;;;;;;2.25;2.00;;;;;15.03;59.99;101327.41;5040998;28;45278;-52
2022/05/25 06:19:37;;;;;;;;;1.00;1.00;;;;;15.12;59.96;101340.41;5040681;28;45734;-53
2022/05/25 06:22:12;;;;;;;;;1.00;1.00;;;;;15.18;59.37;101339.16;5039895;28;45340;-53
2022/05/25 06:24:43;;;;;;;;;2.75;2.75;;;;;15.08;59.35;101322.59;5037388;28;45332;-48
2022/05/25 06:27:11;;;;;;;;;2.75;2.75;;;;;15.18;58.93;101331.06;5020828;28;45355;-50
2022/05/25 06:29:39;;;;;;;;;3.00;3.00;;;;;15.21;59.35;101355.22;5019519;28;47118;-51
2022/05/25 06:32:07;;;;;;;;;5.50;4.25;;;;;15.18;59.17;101350.84;5020742;28;45397;-52
2022/05/25 06:34:33;;;;;;;;;3.00;3.00;;;;;15.15;59.16;101334.81;5020106;28;45410;-52
2022/05/25 06:36:59;;;;;;;;;3.75;2.25;;;;;15.27;59.46;101353.03;5020475;28;45373;-52
2022/05/25 06:39:24;;;;;;;;;1.00;1.00;;;;;15.35;58.42;101355.31;5020365;28;45373;-48
2022/05/25 06:41:50;;;;;;;;;3.25;3.25;;;;;15.43;58.52;101363.84;5020604;28;45212;-52
2022/05/25 06:44:17;;;;;;;;;2.00;2.00;;;;;15.40;58.79;101359.50;5020466;28;45573;-49
2022/05/25 06:46:42;;;;;;;;;4.00;2.75;;;;;15.44;58.33;101371.00;5020319;28;46057;-52
2022/05/25 06:49:07;;;;;;;;;4.50;3.25;;;;;15.48;58.81;101376.13;5020050;28;45412;-53
2022/05/25 06:51:35;;;;;;;;;2.25;2.25;;;;;15.52;58.58;101379.56;5020340;28;45349;-53
2022/05/25 06:54:01;;;;;;;;;2.00;2.00;;;;;15.58;58.79;101379.22;5027097;28;45461;-53
2022/05/25 06:56:26;;;;;;;;;2.75;2.75;;;;;15.62;57.56;101371.84;5040446;28;45408;-53
2022/05/25 06:58:53;;;;;;;;;3.00;2.00;;;;;15.63;57.53;101369.06;5040074;28;46564;-51
2022/05/25 07:01:20;;;;;;;;;4.75;2.00;;;;;15.68;57.39;101383.16;5040145;28;45270;-50
2022/05/25 07:03:45;;;;;;;;;2.00;2.00;;;;;15.74;57.07;101379.22;5040115;28;45424;-49
2022/05/25 07:06:12;;;;;;;;;2.25;2.00;;;;;15.79;56.76;101385.25;5039986;28;45384;-55
2022/05/25 07:08:38;;;;;;;;;1.00;1.00;;;;;15.80;55.67;101376.19;5039895;28;46197;-51
2022/05/25 07:11:04;;;;;;;;;0.25;0.25;;;;;15.84;55.63;101378.63;5039988;28;45393;-52
2022/05/25 07:13:30;;;;;;;;;0.00;0.00;;;;;15.91;54.77;101370.19;5040241;28;45313;-50
2022/05/25 07:16:04;;;;;;;;;0.00;0.00;;;;;15.92;54.27;101383.59;5040180;28;45409;-51
2022/05/25 07:18:31;;;;;;;;;1.00;1.00;;;;;15.93;53.93;101385.34;5040007;28;46108;-54
2022/05/25 07:21:01;;;;;;;;;1.75;1.75;;;;;15.92;54.28;101397.09;5039467;28;45374;-52
2022/05/25 07:23:27;;;;;;;;;1.25;1.00;;;;;15.72;54.22;101373.94;5039313;28;45242;-53
2022/05/25 07:25:53;;;;;;;;;1.25;1.25;;;;;15.83;53.34;101405.75;5025655;28;45535;-50
2022/05/25 07:28:18;;;;;;;;;2.00;2.00;;;;;15.82;53.90;101404.88;5020078;28;45340;-49
2022/05/25 07:30:45;;;;;;;;;1.00;1.00;;;;;15.82;53.63;101414.84;5019677;28;45355;-49
2022/05/25 07:33:11;;;;;;;;;1.25;1.00;;;;;15.88;53.89;101417.19;5002223;28;45392;-50
2022/05/25 07:35:37;;;;;;;;;1.00;1.00;;;;;15.95;53.12;101413.16;5018877;28;45445;-51
2022/05/25 07:38:03;;;;;;;;;0.75;0.75;;;;;16.04;53.03;101411.75;5019674;28;46678;-51
2022/05/25 07:40:33;;;;;;;;;0.75;0.75;;;;;16.07;52.24;101409.75;5019146;28;45354;-51
2022/05/25 07:43:03;;;;;;;;;1.00;1.00;;;;;16.09;52.08;101421.34;5019659;28;45374;-51
2022/05/25 07:45:29;;;;;;;;;0.00;0.00;;;;;16.16;52.14;101411.06;5019393;28;45497;-51
2022/05/25 07:47:55;;;;;;;;;2.00;0.75;;;;;16.22;52.38;101416.09;5019636;28;45258;-53
2022/05/25 07:50:22;;;;;;;;;2.00;1.00;;;;;16.28;51.68;101413.91;5019092;28;45328;-51
2022/05/25 07:52:49;;;;;;;;;0.00;0.00;;;;;16.24;51.08;101406.94;5019986;28;45421;-52
2022/05/25 07:55:15;;;;;;;;;1.00;0.00;;;;;16.30;50.79;101418.34;5036363;28;45551;-50
2022/05/25 07:57:41;;;;;;;;;0.00;0.00;;;;;16.34;47.79;101418.06;5039083;28;45969;-48
2022/05/25 08:00:07;;;;;;;;;1.00;1.00;;;;;16.36;48.22;101418.84;5038623;28;45365;-55
2022/05/25 08:08:10;;;;;;;;;0.00;0.00;;;;;16.46;48.21;101433.59;5039054;28;45495;-53
2022/05/25 08:10:35;;;;;;;;;1.50;0.00;;;;;16.48;48.47;101444.34;5039103;28;45349;-53
2022/05/25 08:13:02;;;;;;;;;0.00;0.00;;;;;16.49;48.77;101446.09;5039211;28;45388;-50
2022/05/25 08:15:28;;;;;;;;;0.00;0.00;;;;;16.52;49.25;101437.75;5039246;28;46094;-50
2022/05/25 08:17:54;;;;;;;;;0.50;0.50;;;;;16.55;49.44;101433.06;5038790;28;45303;-49
2022/05/25 08:20:21;;;;;;;;;0.00;0.00;;;;;16.52;50.06;101432.34;5038480;28;45232;-51
2022/05/25 08:22:46;;;;;;;;;1.50;0.00;;;;;16.48;49.95;101445.22;5038356;28;45408;-55
2022/05/25 08:25:14;;;;;;;;;0.50;0.50;;;;;16.45;49.97;101436.38;5030949;28;45270;-52
2022/05/25 08:27:39;;;;;;;;;1.75;0.00;;;;;16.45;50.96;101434.56;5018752;28;45366;-49
2022/05/25 08:30:08;;;;;;;;;0.75;0.75;;;;;16.40;50.56;101435.81;5018872;28;45373;-53
2022/05/25 08:32:33;;;;;;;;;0.00;0.00;;;;;16.33;51.10;101429.88;5019026;28;45318;-51
2022/05/25 08:34:58;;;;;;;;;0.00;0.00;;;;;16.34;51.45;101426.19;5017995;28;45317;-52
2022/05/25 08:37:24;;;;;;;;;1.00;1.00;;;;;16.38;51.33;101425.06;5017476;28;45396;-51
2022/05/25 08:39:49;;;;;;;;;2.00;0.50;;;;;16.42;51.20;101437.44;5019039;28;45257;-54
2022/05/25 08:42:18;;;;;;;;;1.25;1.00;;;;;16.41;50.77;101422.19;5019129;28;45312;-53
2022/05/25 08:44:46;;;;;;;;;1.00;1.00;;;;;16.46;50.95;101433.59;5018822;28;45307;-53
2022/05/25 08:47:12;;;;;;;;;0.75;0.75;;;;;16.50;50.01;101426.19;5018297;28;45783;-49
2022/05/25 08:49:42;;;;;;;;;0.00;0.00;;;;;16.53;49.97;101440.38;5018840;28;45322;-50
2022/05/25 08:52:28;;;;;;;;;1.00;0.25;;;;;16.52;46.53;101424.22;5017978;28;45356;-51
2022/05/25 08:54:53;;;;;;;;;0.00;0.00;;;;;16.56;46.24;101423.97;5021664;28;45435;-48
2022/05/25 08:57:28;;;;;;;;;0.25;0.25;;;;;16.63;46.71;101432.63;5038311;28;45325;-51
2022/05/25 09:00:00;;;;;;;;;0.00;0.00;;;;;16.68;46.66;101435.91;5038622;28;45392;-48
2022/05/25 09:02:45;;;;;;;;;0.00;0.00;;;;;16.69;47.95;101434.06;5038757;28;45345;-50
2022/05/25 09:05:22;;;;;;;;;1.25;0.00;;;;;16.77;46.48;101443.47;5037991;28;45430;-51
2022/05/25 09:08:12;;;;;;;;;0.00;0.00;;;;;16.80;46.30;101442.44;5037793;28;45551;-52
2022/05/25 09:10:44;;;;;;;;;0.00;0.00;;;;;16.76;46.09;101444.44;5038587;28;45345;-51
2022/05/25 09:13:46;;;;;;;;;0.00;0.00;;;;;16.81;46.31;101444.19;5020404;28;45435;-50
2022/05/25 09:16:17;;;;;;;;;0.00;0.00;;;;;16.87;46.21;101441.97;5020738;28;46501;-51
2022/05/25 09:18:55;;;;;;;;;0.00;0.00;;;;;16.87;46.35;101435.66;5038425;28;46193;-51
2022/05/25 09:21:26;;;;;;;;;0.00;0.00;;;;;17.00;46.97;101440.25;5037765;28;45355;-52
2022/05/25 09:23:55;;;;;;;;;0.00;0.00;;;;;17.07;45.78;101435.34;5038273;28;45475;-49
2022/05/25 09:26:21;;;;;;;;;0.00;0.00;;;;;17.16;44.55;101440.19;5020838;28;45229;-52
2022/05/25 09:28:53;;;;;;;;;0.00;0.00;;;;;17.21;43.83;101439.88;5018124;28;45369;-53
2022/05/25 09:31:25;;;;;;;;;0.00;0.00;;;;;17.20;43.59;101422.75;5018102;28;45558;-49
2022/05/25 09:33:57;;;;;;;;;0.00;0.00;;;;;17.25;43.97;101433.31;5018321;28;45391;-51
2022/05/25 09:36:28;;;;;;;;;0.00;0.00;;;;;17.11;42.95;101407.06;5017863;28;45380;-51
2022/05/25 09:38:56;;;;;;;;;0.00;0.00;;;;;17.26;43.43;101432.34;5017839;28;45396;-49
2022/05/25 09:41:24;;;;;;;;;1.00;0.00;;;;;17.24;42.94;101432.44;5018288;28;45411;-52
2022/05/25 09:43:56;;;;;;;;;1.00;1.00;;;;;17.28;43.15;101442.09;5018284;28;45326;-49
2022/05/25 09:46:37;;;;;;;;;0.00;0.00;;;;;17.36;43.52;101436.19;5017475;28;45563;-53
2022/05/25 09:49:06;;;;;;;;;4.00;0.00;;;;;17.41;43.22;101439.50;5017858;28;46340;-53
2022/05/25 09:51:50;;;;;;;;;0.00;0.00;;;;;17.45;43.61;101441.03;5017600;28;45289;-50
2022/05/25 09:54:26;;;;;;;;;0.00;0.00;;;;;17.44;43.33;101436.59;5026760;28;45235;-54
2022/05/25 09:56:58;;;;;;;;;2.00;0.00;;;;;17.52;42.99;101449.69;5037493;28;45340;-53
2022/05/25 09:59:30;;;;;;;;;0.00;0.00;;;;;17.59;43.75;101440.19;5037952;28;45419;-49
2022/05/25 10:01:56;;;;;;;;;0.00;0.00;;;;;17.69;42.55;101449.50;5037890;28;45447;-52
2022/05/25 10:04:51;;;;;;;;;0.00;0.00;;;;;17.73;43.37;101449.19;5039409;28;45262;-51
2022/05/25 10:07:32;;;;;;;;;1.75;0.00;;;;;17.86;42.66;101445.72;5041030;28;45400;-49
2022/05/25 10:10:06;;;;;;;;;0.00;0.00;;;;;17.87;42.16;101437.44;5041023;28;46148;-50
2022/05/25 10:12:40;;;;;;;;;0.00;0.00;;;;;17.73;42.88;101423.91;5041071;28;45410;-51
2022/05/25 10:15:31;;;;;;;;;0.00;0.00;;;;;17.90;43.08;101436.38;5041170;28;45199;-52
2022/05/25 10:17:58;;;;;;;;;1.00;0.00;;;;;17.91;43.59;101439.00;5041091;28;45384;-50
2022/05/25 10:20:32;;;;;;;;;0.00;0.00;;;;;18.01;43.69;101448.28;5040860;28;45900;-53
2022/05/25 10:23:11;;;;;;;;;0.00;0.00;;;;;18.00;42.96;101448.38;5040857;28;45408;-51
2022/05/25 10:25:43;;;;;;;;;0.00;0.00;;;;;17.97;42.88;101457.56;5022862;28;45383;-51
2022/05/25 10:28:36;;;;;;;;;0.00;0.00;;;;;17.94;43.23;101454.22;5039073;28;45336;-51
2022/05/25 10:37:07;;;;;;;;;0.00;0.00;;;;;18.07;43.19;101463.28;5040502;28;45369;-54
2022/05/25 10:39:55;;;;;;;;;0.00;0.00;;;;;18.09;43.37;101450.50;5040634;28;45565;-49
2022/05/25 10:42:26;;;;;;;;;0.00;0.00;;;;;18.14;42.56;101454.63;5040266;28;45391;-51
2022/05/25 10:45:10;;;;;;;;;0.00;0.00;;;;;18.15;42.63;101448.22;5040579;28;45294;-52
2022/05/25 10:47:41;;;;;;;;;0.00;0.00;;;;;18.16;42.83;101443.69;5040404;28;45393;-49
2022/05/25 10:50:32;;;;;;;;;0.00;0.00;;;;;18.19;41.74;101435.34;5040454;28;45446;-51
2022/05/25 10:53:43;;;;;;;;;0.00;0.00;;;;;18.25;40.75;101453.94;5040368;28;45410;-50
2022/05/25 10:56:27;;;;;;;;;1.00;0.00;;;;;18.28;41.24;101442.88;5029711;28;45339;-53
2022/05/25 10:59:30;;;;;;;;;0.00;0.00;;;;;18.38;41.64;101440.38;5040335;28;45277;-52
2022/05/25 11:02:16;;;;;;;;;1.00;0.00;;;;;18.51;40.60;101449.47;5039209;28;45886;-51
2022/05/25 11:05:02;;;;;;;;;0.00;0.00;;;;;18.60;41.01;101440.72;5040280;28;45443;-51
2022/05/25 11:07:36;;;;;;;;;0.25;0.00;;;;;18.71;40.45;101445.44;5040164;28;45314;-51
2022/05/25 11:10:31;;;;;;;;;0.00;0.00;;;;;18.67;40.98;101452.03;5040343;28;45777;-49
2022/05/25 11:13:14;;;;;;;;;0.00;0.00;;;;;18.68;41.10;101442.91;5039776;28;45469;-51
2022/05/25 11:15:42;;;;;;;;;0.00;0.00;;;;;18.77;39.62;101447.72;5039431;28;47584;-49
2022/05/25 11:18:19;;;;;;;;;0.25;0.00;;;;;18.79;39.76;101443.06;5040128;28;45333;-50
2022/05/25 11:20:52;;;;;;;;;0.00;0.00;;;;;18.90;39.98;101454.03;5021961;28;45353;-53
2022/05/25 11:23:35;;;;;;;;;0.00;0.00;;;;;18.93;38.98;101434.81;5039859;28;45254;-53
2022/05/25 11:26:20;;;;;;;;;0.25;0.25;;;;;19.04;39.77;101445.81;5024776;28;45750;-50
2022/05/25 11:28:49;;;;;;;;;0.00;0.00;;;;;19.18;39.58;101432.09;5019931;28;45373;-48
2022/05/25 11:31:44;;;;;;;;;0.00;0.00;;;;;19.33;39.44;101451.00;5020044;28;45257;-50
2022/05/25 11:34:34;;;;;;;;;0.00;0.00;;;;;19.47;39.59;101451.81;5020005;28;45341;-50
2022/05/25 11:37:05;;;;;;;;;1.75;0.00;;;;;19.50;38.65;101448.00;5019107;28;45556;-51
2022/05/25 11:39:44;;;;;;;;;0.50;0.00;;;;;19.60;39.82;101444.50;5021379;28;45775;-50
2022/05/25 11:42:24;;;;;;;;;2.00;0.00;;;;;19.70;38.58;101454.72;5046879;28;45522;-49
2022/05/25 11:44:59;;;;;;;;;0.00;0.00;;;;;19.81;38.97;101442.09;5039431;28;45332;-50
2022/05/25 11:48:06;;;;;;;;;1.75;0.00;;;;;19.97;39.33;101439.97;5034055;28;46186;-49
2022/05/25 11:50:47;;;;;;;;;0.00;0.00;;;;;20.16;37.94;101439.44;5024922;28;45267;-49
2022/05/25 11:53:35;;;;;;;;;0.00;0.00;;;;;20.32;37.85;101434.59;5039496;28;45400;-49
2022/05/25 11:56:05;;;;;;;;;1.00;0.00;;;;;20.49;37.86;101429.75;5025693;28;45430;-50
2022/05/25 11:58:48;;;;;;;;;1.00;0.00;;;;;20.52;38.08;101432.22;5019378;28;46324;-51
2022/05/25 12:01:31;;;;;;;;;0.00;0.00;;;;;20.59;36.65;101438.94;5027468;28;45342;-50
2022/05/25 12:04:36;;;;;;;;;1.75;0.00;;;;;20.59;37.37;101430.75;5026335;28;45347;-50
2022/05/25 12:07:13;;;;;;;;;0.00;0.00;;;;;20.66;37.30;101432.94;5038921;28;45256;-53
2022/05/25 12:10:17;;;;;;;;;0.00;0.00;;;;;20.63;36.73;101456.81;5038989;28;45398;-51
2022/05/25 12:12:58;;;;;;;;;0.00;0.00;;;;;20.50;36.00;101435.06;5030884;28;45397;-48
2022/05/25 12:15:48;;;;;;;;;0.00;0.00;;;;;20.57;36.77;101436.34;5030537;28;45338;-50
2022/05/25 12:18:26;;;;;;;;;0.00;0.00;;;;;20.69;36.48;101439.97;5022938;28;45724;-51
2022/05/25 12:21:13;;;;;;;;;0.50;0.00;;;;;20.84;36.84;101437.94;5030566;28;45412;-53
2022/05/25 12:24:02;;;;;;;;;0.00;0.00;;;;;20.99;36.40;101445.78;5027435;28;45376;-49
2022/05/25 12:26:31;;;;;;;;;0.00;0.00;;;;;21.09;36.93;101444.09;5020381;28;45580;-52
2022/05/25 12:29:11;;;;;;;;;0.00;0.00;;;;;21.17;35.84;101448.06;5017531;28;45443;-50
2022/05/25 12:31:37;;;;;;;;;0.00;0.00;;;;;21.13;35.80;101461.03;5025924;28;46324;-50
2022/05/25 12:34:03;;;;;;;;;2.00;0.00;;;;;21.08;35.60;101466.88;5039082;28;45345;-49
2022/05/25 12:36:31;;;;;;;;;0.00;0.00;;;;;21.09;35.98;101460.44;5038580;28;45400;-52
2022/05/25 12:38:57;;;;;;;;;0.00;0.00;;;;;21.15;35.53;101456.34;5038874;28;45863;-52
2022/05/25 12:41:35;;;;;;;;;0.00;0.00;;;;;21.27;35.85;101452.66;5038690;28;46338;-50
2022/05/25 12:49:38;;;;;;;;;0.00;0.00;;;;;21.60;34.65;101457.31;5038860;28;45328;-55
2022/05/25 12:52:29;;;;;;;;;0.00;0.00;;;;;21.56;34.89;101474.03;5038381;28;47038;-55
2022/05/25 12:55:17;;;;;;;;;0.00;0.00;;;;;21.67;35.08;101453.09;5038379;28;45585;-52
2022/05/25 12:57:52;;;;;;;;;0.00;0.00;;;;;21.70;34.84;101454.69;5027781;28;45386;-51
2022/05/25 13:00:20;;;;;;;;;0.00;0.00;;;;;21.77;35.03;101455.94;5037947;28;45405;-51
2022/05/25 13:02:45;;;;;;;;;0.00;0.00;;;;;21.95;35.23;101434.44;5038568;28;46794;-49
2022/05/25 13:05:50;;;;;;;;;0.00;0.00;;;;;22.18;33.91;101442.50;5038469;28;45352;-49
2022/05/25 13:09:00;;;;;;;;;0.00;0.00;;;;;22.29;33.81;101455.25;5038695;28;45287;-52
2022/05/25 13:11:30;;;;;;;;;0.00;0.00;;;;;22.20;34.36;101456.03;5009236;28;45314;-51
2022/05/25 13:13:58;;;;;;;;;0.00;0.00;;;;;22.06;34.65;101451.69;5038419;28;45312;-50
2022/05/25 13:16:45;;;;;;;;;0.00;0.00;;;;;21.99;34.90;101458.66;5038499;28;45396;-48
2022/05/25 13:19:32;;;;;;;;;0.00;0.00;;;;;21.95;34.67;101451.66;5037577;28;45403;-50
2022/05/25 13:22:03;;;;;;;;;0.75;0.00;;;;;22.05;34.34;101449.97;5037079;28;45503;-49
2022/05/25 13:24:49;;;;;;;;;0.00;0.00;;;;;22.04;33.18;101459.16;5035908;28;46199;-52
2022/05/25 13:27:19;;;;;;;;;1.00;1.00;;;;;22.01;33.20;101462.16;5017385;28;45509;-51
2022/05/25 13:30:17;;;;;;;;;0.00;0.00;;;;;22.05;33.75;101460.00;5018489;28;45487;-50
2022/05/25 13:32:58;;;;;;;;;1.75;0.00;;;;;22.15;33.33;101464.59;5021172;28;45548;-51
2022/05/25 13:35:35;;;;;;;;;0.00;0.00;;;;;22.11;33.85;101452.19;5037655;28;47077;-49
2022/05/25 13:38:03;;;;;;;;;1.00;0.00;;;;;22.22;33.85;101451.28;5038337;28;45339;-50
2022/05/25 13:40:37;;;;;;;;;0.00;0.00;;;;;22.27;33.69;101459.97;5041459;28;45338;-50
2022/05/25 13:43:03;;;;;;;;;0.00;0.00;;;;;22.37;33.51;101457.34;5041801;28;45402;-49
2022/05/25 13:45:30;;;;;;;;;0.00;0.00;;;;;22.26;33.39;101459.13;5041545;28;46158;-51
2022/05/25 13:48:00;;;;;;;;;0.00;0.00;;;;;22.20;34.04;101450.56;5041955;28;45502;-52
2022/05/25 13:50:35;;;;;;;;;1.25;0.00;;;;;22.26;34.04;101458.25;5041557;28;45333;-50
2022/05/25 13:53:01;;;;;;;;;0.00;0.00;;;;;22.27;34.60;101446.31;5041698;28;45480;-51
2022/05/25 13:55:33;;;;;;;;;0.00;0.00;;;;;22.28;34.75;101453.53;5041230;28;45425;-50
2022/05/25 13:58:01;;;;;;;;;0.00;0.00;;;;;22.39;34.63;101453.47;5041625;28;45440;-53
2022/05/25 14:00:26;;;;;;;;;0.00;0.00;;;;;22.41;33.88;101437.81;5041861;28;45179;-51
2022/05/25 14:02:52;;;;;;;;;0.00;0.00;;;;;22.56;33.88;101460.25;5041730;28;45325;-52
2022/05/25 14:05:24;;;;;;;;;0.00;0.00;;;;;22.74;34.06;101450.50;5040646;28;45708;-54
2022/05/25 14:07:50;;;;;;;;;0.00;0.00;;;;;22.93;33.71;101453.41;5041385;28;45408;-54
2022/05/25 14:13:20;;;;;;;;;0.00;0.00;;;;;23.14;33.72;101442.44;5041236;28;45308;-50
2022/05/25 14:15:56;;;;;;;;;0.00;0.00;;;;;23.29;33.58;101454.81;5041213;28;47165;-52
2022/05/25 14:18:21;;;;;;;;;0.00;0.00;;;;;23.28;33.54;101452.19;5041305;28;45369;-53
2022/05/25 14:20:47;;;;;;;;;0.00;0.00;;;;;23.14;33.54;101442.44;5041080;28;45325;-50
2022/05/25 14:23:12;;;;;;;;;0.00;0.00;;;;;23.24;33.58;101446.13;5041198;28;45330;-52
2022/05/25 14:25:41;;;;;;;;;0.00;0.00;;;;;23.33;33.50;101459.00;5029172;28;45283;-48
2022/05/25 14:28:06;;;;;;;;;0.00;0.00;;;;;23.45;32.70;101456.19;5020984;28;45433;-49
2022/05/25 14:30:35;;;;;;;;;0.00;0.00;;;;;23.56;33.49;101450.66;5021267;28;45442;-51
2022/05/25 14:33:18;;;;;;;;;0.00;0.00;;;;;23.57;33.33;101447.75;5021041;28;46181;-50
2022/05/25 14:35:50;;;;;;;;;0.75;0.75;;;;;23.59;32.78;101442.16;5020643;28;45542;-51
2022/05/25 14:38:17;;;;;;;;;0.00;0.00;;;;;23.65;32.67;101449.81;5020691;28;45392;-50
2022/05/25 14:40:49;;;;;;;;;0.50;0.50;;;;;23.62;32.77;101459.19;5020989;28;45349;-54
2022/05/25 14:43:32;;;;;;;;;0.00;0.00;;;;;23.49;33.01;101461.25;5020837;28;45370;-51
2022/05/25 14:46:15;;;;;;;;;0.00;0.00;;;;;23.19;33.08;101456.59;5020750;28;45568;-49
2022/05/25 14:48:47;;;;;;;;;0.00;0.00;;;;;22.96;33.61;101460.50;5002942;28;45452;-53
2022/05/25 14:51:19;;;;;;;;;0.25;0.25;;;;;22.83;33.38;101457.94;5019884;28;45701;-51
2022/05/25 14:53:45;;;;;;;;;0.00;0.00;;;;;22.81;33.23;101453.56;5025252;28;45569;-51
2022/05/25 14:56:23;;;;;;;;;0.00;0.00;;;;;22.83;34.07;101444.25;5039671;28;45439;-52
2022/05/25 14:58:51;;;;;;;;;0.00;0.00;;;;;22.78;33.68;101449.25;5040277;28;45341;-52
2022/05/25 15:01:25;;;;;;;;;0.00;0.00;;;;;22.69;34.26;101444.56;5041005;28;45364;-54
2022/05/25 15:03:51;;;;;;;;;0.00;0.00;;;;;22.77;34.16;101443.94;5039961;28;45347;-50
2022/05/25 15:06:23;;;;;;;;;0.00;0.00;;;;;22.78;33.72;101453.88;5040175;28;47263;-50
2022/05/25 15:08:51;;;;;;;;;0.00;0.00;;;;;22.65;34.39;101454.00;5021717;28;45341;-52
2022/05/25 15:11:17;;;;;;;;;0.25;0.00;;;;;22.65;32.75;101459.47;5040577;28;45668;-52
2022/05/25 15:19:22;;;;;;;;;0.00;0.00;;;;;22.62;33.87;101451.53;5040451;28;45320;-47
2022/05/25 15:21:49;;;;;;;;;1.25;0.00;;;;;22.65;34.27;101448.53;5040278;28;45308;-49
2022/05/25 15:24:17;;;;;;;;;0.00;0.00;;;;;22.72;34.55;101466.13;5039578;28;45926;-50
2022/05/25 15:26:55;;;;;;;;;0.00;0.00;;;;;22.67;34.25;101456.59;5040010;28;46174;-50
2022/05/25 15:29:42;;;;;;;;;0.00;0.00;;;;;22.58;33.40;101471.91;5039152;28;45171;-51
2022/05/25 15:32:08;;;;;;;;;1.50;0.00;;;;;22.47;34.26;101456.44;5038737;28;45412;-57
2022/05/25 15:34:33;;;;;;;;;0.00;0.00;;;;;22.37;34.06;101460.91;5039572;28;45448;-59
2022/05/25 15:36:59;;;;;;;;;0.00;0.00;;;;;22.37;34.49;101473.75;5039512;28;45408;-57
2022/05/25 15:39:24;;;;;;;;;2.00;0.00;;;;;22.25;34.83;101475.63;5040136;28;45511;-58
2022/05/25 15:41:49;;;;;;;;;0.25;0.25;;;;;22.15;34.53;101483.72;5021890;28;45511;-58
2022/05/25 15:44:15;;;;;;;;;1.00;1.00;;;;;21.97;35.13;101474.31;5039564;28;45931;-58
2022/05/25 15:46:44;;;;;;;;;0.00;0.00;;;;;21.78;35.46;101479.47;5039679;28;46960;-56
2022/05/25 15:49:14;;;;;;;;;0.00;0.00;;;;;21.64;35.94;101487.94;5039235;28;45336;-58
2022/05/25 15:51:53;;;;;;;;;0.00;0.00;;;;;21.56;36.10;101491.28;5039448;28;45388;-58
2022/05/25 15:54:23;;;;;;;;;0.00;0.00;;;;;21.50;36.24;101500.84;5039405;28;45535;-58
2022/05/25 15:56:51;;;;;;;;;0.00;0.00;;;;;21.38;36.38;101490.00;5039139;28;47191;-59
2022/05/25 15:59:17;;;;;;;;;0.00;0.00;;;;;21.32;36.92;101494.09;5039431;28;45376;-59
2022/05/25 16:01:45;;;;;;;;;0.00;0.00;;;;;21.30;36.86;101497.94;5038599;28;45402;-59
2022/05/25 16:04:15;;;;;;;;;2.75;0.00;;;;;21.33;37.07;101493.13;5038401;28;45871;-58
2022/05/25 16:06:42;;;;;;;;;0.00;0.00;;;;;21.36;36.80;101497.44;5038750;28;46704;-57
2022/05/25 16:09:21;;;;;;;;;0.00;0.00;;;;;21.18;36.75;101482.56;5039237;28;45372;-60
2022/05/25 16:11:57;;;;;;;;;0.00;0.00;;;;;21.19;36.90;101520.59;5039153;28;45341;-59
2022/05/25 16:14:23;;;;;;;;;0.00;0.00;;;;;21.12;37.63;101513.84;5039005;28;45482;-58
2022/05/25 16:16:49;;;;;;;;;0.25;0.00;;;;;21.06;37.46;101531.56;5038819;28;46300;-58
2022/05/25 16:19:19;;;;;;;;;0.00;0.00;;;;;21.08;37.92;101531.44;5039307;28;45433;-58
2022/05/25 16:21:45;;;;;;;;;1.50;0.00;;;;;21.05;37.91;101531.66;5038678;28;45351;-56
2022/05/25 16:24:12;;;;;;;;;0.00;0.00;;;;;20.87;38.17;101522.19;5039064;28;45368;-58
2022/05/25 16:26:39;;;;;;;;;0.00;0.00;;;;;20.84;37.80;101538.78;5024820;28;46317;-59
2022/05/25 16:29:06;;;;;;;;;0.00;0.00;;;;;20.77;38.08;101541.94;5038543;28;45438;-57
2022/05/25 16:31:33;;;;;;;;;0.00;0.00;;;;;20.74;37.48;101530.44;5038710;28;45291;-58
2022/05/25 16:34:02;;;;;;;;;0.00;0.00;;;;;20.63;38.01;101528.50;5038962;28;45580;-58
2022/05/25 16:36:29;;;;;;;;;0.00;0.00;;;;;20.69;38.18;101560.75;5038769;28;46254;-58
2022/05/25 16:38:55;;;;;;;;;0.00;0.00;;;;;20.62;38.27;101548.56;5038829;28;45457;-59
2022/05/25 16:41:27;;;;;;;;;0.50;0.00;;;;;20.60;38.77;101552.38;5039087;28;45406;-58
2022/05/25 16:43:53;;;;;;;;;0.00;0.00;;;;;20.54;38.88;101556.44;5039010;28;45301;-58
2022/05/25 16:46:20;;;;;;;;;0.00;0.00;;;;;20.46;39.34;101556.16;5038822;28;46251;-59
2022/05/25 16:48:48;;;;;;;;;0.00;0.00;;;;;20.38;38.54;101555.84;5038585;28;45496;-59
2022/05/25 16:51:13;;;;;;;;;0.00;0.00;;;;;20.31;39.81;101557.25;5038656;28;45334;-58